• Join FlightAware (Why Join?)
  • Login
  • US Flag 
10:26AM EDT


 

Airport Tracker/Info


-or-


 

Live Flight TrackerFlight Track Log ✈ SWA3675 ✈ 05-May-2013 ✈ KALB - KBWI

Flight Track Log - Related Links

Times and Time Zones

All times are in EDT time to prevent confusion due to time zone crossing. See the SWA3675 flight status page for this flight to view local times or setup timezone preferences in your user account.

Time Position Orientation Groundspeed Altitude Reporting Facility
EDT Latitude Longitude Course Direction KTS MPH feet Rate Location/Type
06:04PM 42.7297 -73.8081 223° Southwest 153 176 1,400  Level Boston Center
06:06PM 42.6205 -73.7667 180° South  Level FlightAware Approximate
06:06PM 42.6664 -73.8886 180° South 220 253 6,200  Level Boston Center
06:07PM 42.6631 -73.9761 267° West 220 253 9,500 3,300 Climbing Boston Center
06:08PM 42.6578 -74.0633 265° West 231 266 12,900 2,400 Climbing Boston Center
06:09PM 42.6125 -74.1611 238° Southwest 256 295 14,300 2,160 Climbing Boston Center
06:10PM 42.5339 -74.1250 161° South 277 319 17,300 2,880 Climbing Boston Center
06:11PM 42.4450 -74.0664 154° Southeast 305 351 20,100 2,700 Climbing Boston Center
06:12PM 42.3500 -74.0019 153° Southeast 347 399 22,800 1,440 Climbing Boston Center
06:13PM 42.2489 -73.9322 153° Southeast 388 447 23,000 120 Climbing Boston Center
06:14PM 42.1497 -73.8628 153° Southeast 405 466 23,100 1,200 Climbing Boston Center
06:15PM 42.0483 -73.7961 154° Southeast 405 466 25,500 1,620 Climbing Boston Center
06:17PM 41.9582 -73.8913 171° South  Level Estimated
06:17PM 41.8375 -73.6467 171° South 420 483 28,000  Level Boston Center
06:18PM 41.7150 -73.6025 165° South 439 505 28,000  Level Boston Center
06:20PM 41.5369 -73.7283 208° Southwest 435 501 28,000  Level New York Center
06:22PM 41.4011 -73.6469 156° South  Level FlightAware Approximate
06:22PM 41.3003 -73.9442 156° South 488 562 28,000  Level New York Center
06:23PM 41.1911 -74.0439 215° Southwest 496 571 27,800 -1,020 Descending New York Center
06:24PM 41.0781 -74.1458 214° Southwest 501 577 26,000 -900 Descending New York Center
06:25PM 40.9819 -74.2289 213° Southwest 490 564 26,000  Level New York Center
06:26PM 40.8811 -74.3225 215° Southwest 472 543 26,000  Level New York Center
06:27PM 40.7781 -74.4239 217° Southwest 467 537 26,000  Level New York Center
06:28PM 40.6989 -74.5511 231° Southwest 445 512 26,000 -720 Level New York Center
06:30PM 40.6014 -74.6871 225° Southwest  Level FlightAware Approximate
06:31PM 40.5161 -74.9669 225° Southwest 443 510 23,300  Level New York Center
06:32PM 40.4650 -75.1111 245° Southwest 443 510 22,300 -1,020 Descending New York Center
06:33PM 40.3978 -75.2406 236° Southwest 436 502 21,300 -1,020 Descending New York Center
06:34PM 40.3028 -75.3242 214° Southwest 419 482 20,300 -1,020 Descending New York Center
06:35PM 40.2100 -75.4106 215° Southwest 414 476 19,300 -1,020 Descending New York Center
06:36PM 40.1147 -75.4936 214° Southwest 420 483 18,300 -660 Descending New York Center
06:37PM 40.0175 -75.5792 214° Southwest 403 464 18,000 -480 Descending New York Center
06:38PM 39.9394 -75.6525 216° Southwest 388 447 17,400 -840 Descending New York Center
06:39PM 39.8658 -75.7717 231° Southwest 382 440 16,400 -1,020 Descending New York Center
06:40PM 39.8114 -75.8731 235° Southwest 388 447 15,400 -1,200 Descending New York Center
06:42PM 39.7000 -76.0833 235° Southwest 368 423 13,100 -1,260 Descending Potomac TRACON
06:43PM 39.6500 -76.2000 241° Southwest 352 405 11,900 -1,020 Descending Potomac TRACON
06:44PM 39.6000 -76.3000 237° Southwest 311 358 11,100 -1,380 Descending Potomac TRACON
06:46PM 39.4631 -76.4194 207° Southwest  Level Estimated
06:47PM 39.5667 -76.6000 207° Southwest 286 329 6,500  Level Potomac TRACON
06:48PM 39.5333 -76.7000 247° West 277 319 5,100 -1,320 Descending Potomac TRACON
06:49PM 39.5167 -76.7833 255° West 276 318 4,000 -600 Descending Potomac TRACON
06:50PM 39.4833 -76.8667 243° Southwest 237 273 4,000  Level Potomac TRACON
06:51PM 39.4167 -76.8833 191° South 219 252 4,000  Level Potomac TRACON
06:52PM 39.3667 -76.9000 194° South 216 249 4,000  Level Potomac TRACON
06:53PM 39.3000 -76.9000 180° South 219 252 4,000  Level Potomac TRACON
06:54PM 39.2500 -76.8833 166° South 203 234 4,000 -540 Level Potomac TRACON
06:55PM 39.2167 -76.8500 142° Southeast 165 190 3,000 -1,020 Descending Potomac TRACON
06:56PM 39.1833 -76.8167 142° Southeast 162 186 2,000 -900 Descending Potomac TRACON
06:57PM 39.1833 -76.7500 90° East 140 161 1,200 -840 Descending Potomac TRACON
06:59PM 39.1667 -76.6667 270° West  Level FlightAware Approximate
07:06PM 39.1754 -76.6683 270° West  Level Estimated
07:07PM 39.1754 -76.6683 270° West  Level Estimated
07:08PM 39.1754 -76.6683 270° West  Level Estimated
07:09PM 39.1754 -76.6683 270° West  Level Estimated
07:10PM 39.1754 -76.6683 270° West  Level Estimated
07:11PM 39.1754 -76.6683 270° West  Level Estimated